Time;durP1;ratioP1;P1;durP2;ratioP2;P2;SDS_P1;SDS_P2;PMS_P1;PMS_P2;Temp;Humidity;BMP_temperature;BMP_pressure;BME280_temperature;BME280_humidity;BME280_pressure;Samples;Min_cycle;Max_cycle;Signal;HPM_P1;HPM_P2
2023/08/22 00:00:13;;;;;;;;;;;19.10;99.90;;;;;;5036164;28;20407;-71
2023/08/22 00:02:39;;;;;;;;;;;19.00;99.90;;;;;;5035752;28;20035;-71
2023/08/22 00:05:05;;;;;;;;;;;19.10;99.90;;;;;;5036566;28;20413;-71
2023/08/22 00:07:30;;;;;;;;;;;19.00;99.90;;;;;;5037323;28;20420;-71
2023/08/22 00:09:56;;;;;;;;;;;19.00;99.90;;;;;;5036316;28;19925;-71
2023/08/22 00:12:21;;;;;;;;;;;19.00;99.90;;;;;;5035490;28;19925;-71
2023/08/22 00:14:47;;;;;;;;;;;19.00;99.90;;;;;;5045547;28;19932;-71
2023/08/22 00:17:13;;;;;;;;;;;19.00;99.90;;;;;;5032665;28;19932;-72
2023/08/22 00:19:39;;;;;;;;;;;19.00;99.90;;;;;;5014404;28;19925;-72
2023/08/22 00:22:04;;;;;;;;;;;19.00;99.90;;;;;;5032739;28;19987;-72
2023/08/22 00:24:30;;;;;;;;;;;19.00;99.90;;;;;;5032538;28;20016;-72
2023/08/22 00:26:56;;;;;;;;;;;19.00;99.90;;;;;;5032671;28;19979;-71
2023/08/22 00:29:22;;;;;;;;;;;19.00;99.90;;;;;;5032856;28;19925;-71
2023/08/22 00:31:47;;;;;;;;;;;19.10;99.90;;;;;;5031785;28;20407;-71
2023/08/22 00:34:13;;;;;;;;;;;19.10;99.90;;;;;;5032056;28;19925;-71
2023/08/22 00:36:38;;;;;;;;;;;19.10;99.90;;;;;;5031885;28;19932;-71
2023/08/22 00:39:04;;;;;;;;;;;19.10;99.90;;;;;;5031925;28;19925;-71
2023/08/22 00:41:29;;;;;;;;;;;19.00;99.90;;;;;;5051991;28;19925;-71
2023/08/22 00:43:55;;;;;;;;;;;19.00;99.90;;;;;;5051179;28;19925;-71
2023/08/22 00:46:22;;;;;;;;;;;19.00;99.90;;;;;;5038321;28;20024;-71
2023/08/22 00:48:48;;;;;;;;;;;19.00;99.90;;;;;;5037318;28;19921;-71
2023/08/22 00:51:14;;;;;;;;;;;19.00;99.90;;;;;;5045147;28;19929;-71
2023/08/22 00:53:40;;;;;;;;;;;19.00;99.90;;;;;;5032571;28;20016;-71
2023/08/22 00:56:06;;;;;;;;;;;19.00;99.90;;;;;;5031877;28;20015;-71
2023/08/22 00:58:31;;;;;;;;;;;19.00;99.90;;;;;;5033409;28;19972;-71
2023/08/22 01:00:57;;;;;;;;;;;18.90;99.90;;;;;;5032645;28;19972;-71
2023/08/22 01:03:23;;;;;;;;;;;18.90;99.90;;;;;;5032998;28;19929;-71
2023/08/22 01:05:52;;;;;;;;;;;18.90;99.90;;;;;;5013979;28;19925;-71
2023/08/22 01:08:20;;;;;;;;;;;18.90;99.90;;;;;;5031886;28;20040;-71
2023/08/22 01:10:50;;;;;;;;;;;18.80;99.90;;;;;;5034076;28;19948;-71
2023/08/22 01:13:27;;;;;;;;;;;18.80;99.90;;;;;;5013453;28;19925;-71
2023/08/22 01:15:53;;;;;;;;;;;18.80;99.90;;;;;;5030221;28;19929;-72
2023/08/22 01:18:19;;;;;;;;;;;18.80;99.90;;;;;;5030536;28;20020;-71
2023/08/22 01:20:45;;;;;;;;;;;18.80;1.00;;;;;;5030755;28;20024;-71
2023/08/22 01:23:10;;;;;;;;;;;18.80;1.00;;;;;;5031082;28;19925;-71
2023/08/22 01:25:36;;;;;;;;;;;18.80;1.00;;;;;;5030607;28;19925;-71
2023/08/22 01:28:20;;;;;;;;;;;18.80;1.00;;;;;;5012542;28;19940;-72
2023/08/22 01:30:46;;;;;;;;;;;18.80;1.00;;;;;;5030188;28;19935;-72
2023/08/22 01:33:14;;;;;;;;;;;18.80;1.00;;;;;;5030280;28;19929;-70
2023/08/22 01:35:41;;;;;;;;;;;18.80;1.00;;;;;;5031461;28;19944;-71
2023/08/22 01:38:08;;;;;;;;;;;18.70;1.00;;;;;;5031558;28;19925;-71
2023/08/22 01:40:33;;;;;;;;;;;18.70;1.00;;;;;;5031244;28;19940;-71
2023/08/22 01:42:59;;;;;;;;;;;18.70;1.00;;;;;;5030655;28;19929;-71
2023/08/22 01:45:25;;;;;;;;;;;18.70;1.00;;;;;;5031610;28;19926;-71
2023/08/22 01:47:51;;;;;;;;;;;18.60;1.00;;;;;;5031376;28;20272;-71
2023/08/22 01:50:16;;;;;;;;;;;18.70;1.00;;;;;;5031514;28;19983;-71
2023/08/22 01:52:42;;;;;;;;;;;18.60;1.00;;;;;;5031881;28;19935;-71
2023/08/22 01:55:07;;;;;;;;;;;18.60;1.00;;;;;;5031882;28;20303;-71
2023/08/22 01:57:33;;;;;;;;;;;18.60;1.00;;;;;;5033019;28;19932;-71
2023/08/22 01:59:58;;;;;;;;;;;18.60;1.00;;;;;;5031403;28;19925;-71
2023/08/22 02:02:24;;;;;;;;;;;18.60;1.00;;;;;;5032113;28;19929;-71
2023/08/22 02:04:50;;;;;;;;;;;18.60;1.00;;;;;;5031333;28;19932;-70
2023/08/22 02:07:15;;;;;;;;;;;18.50;1.00;;;;;;5032214;28;19925;-71
2023/08/22 02:09:41;;;;;;;;;;;18.60;1.00;;;;;;5030882;28;19929;-71
2023/08/22 02:12:06;;;;;;;;;;;18.50;1.00;;;;;;5032298;28;20283;-71
2023/08/22 02:14:32;;;;;;;;;;;18.50;1.00;;;;;;5029969;28;20479;-71
2023/08/22 02:16:58;;;;;;;;;;;18.50;1.00;;;;;;5030004;28;19980;-71
2023/08/22 02:19:23;;;;;;;;;;;18.50;1.00;;;;;;5012225;28;20346;-70
2023/08/22 02:21:49;;;;;;;;;;;18.50;1.00;;;;;;5030112;28;19925;-71
2023/08/22 02:24:14;;;;;;;;;;;18.40;1.00;;;;;;5013310;28;19929;-71
2023/08/22 02:26:42;;;;;;;;;;;18.40;1.00;;;;;;5029657;28;19925;-71
2023/08/22 02:29:08;;;;;;;;;;;18.30;1.00;;;;;;5030512;28;20425;-71
2023/08/22 02:31:34;;;;;;;;;;;18.40;1.00;;;;;;5042577;28;19925;-71
2023/08/22 02:33:59;;;;;;;;;;;18.40;1.00;;;;;;5029670;28;20370;-71
2023/08/22 02:36:25;;;;;;;;;;;18.30;1.00;;;;;;5012050;28;20315;-71
2023/08/22 02:38:50;;;;;;;;;;;18.30;1.00;;;;;;5030894;28;20685;-71
2023/08/22 02:41:16;;;;;;;;;;;18.30;1.00;;;;;;5032070;28;19925;-71
2023/08/22 02:43:42;;;;;;;;;;;18.30;1.00;;;;;;5031057;28;19925;-71
2023/08/22 02:46:07;;;;;;;;;;;18.20;1.00;;;;;;5031835;28;19925;-71
2023/08/22 02:48:32;;;;;;;;;;;18.20;1.00;;;;;;5032548;28;19925;-71
2023/08/22 02:50:58;;;;;;;;;;;18.20;1.00;;;;;;5031062;28;20311;-71
2023/08/22 02:53:24;;;;;;;;;;;18.20;1.00;;;;;;5030038;28;19925;-71
2023/08/22 02:55:49;;;;;;;;;;;18.20;1.00;;;;;;5030586;28;20020;-71
2023/08/22 02:58:15;;;;;;;;;;;18.10;1.00;;;;;;5030537;28;20326;-71
2023/08/22 03:00:45;;;;;;;;;;;18.20;1.00;;;;;;5030668;28;20349;-71
2023/08/22 03:03:11;;;;;;;;;;;18.20;1.00;;;;;;5030251;28;19935;-71
2023/08/22 03:05:37;;;;;;;;;;;18.10;1.00;;;;;;5030909;28;20012;-71
2023/08/22 03:08:03;;;;;;;;;;;18.10;1.00;;;;;;5030833;28;20455;-71
2023/08/22 03:10:28;;;;;;;;;;;18.10;1.00;;;;;;5029445;28;20131;-71
2023/08/22 03:12:54;;;;;;;;;;;18.10;1.00;;;;;;5030918;28;20127;-71
2023/08/22 03:15:19;;;;;;;;;;;18.10;1.00;;;;;;5031305;28;19932;-71
2023/08/22 03:17:45;;;;;;;;;;;18.10;1.00;;;;;;5032524;28;20015;-71
2023/08/22 03:20:11;;;;;;;;;;;18.00;1.00;;;;;;5030865;28;20316;-71
2023/08/22 03:22:36;;;;;;;;;;;18.00;1.00;;;;;;5031575;28;19932;-71
2023/08/22 03:25:02;;;;;;;;;;;18.00;1.00;;;;;;5012081;28;19972;-71
2023/08/22 03:27:27;;;;;;;;;;;18.00;1.00;;;;;;5030378;28;19925;-71
2023/08/22 03:29:53;;;;;;;;;;;18.00;1.00;;;;;;5030296;28;19933;-71
2023/08/22 03:32:18;;;;;;;;;;;18.00;1.00;;;;;;5029786;28;19932;-71
2023/08/22 03:34:44;;;;;;;;;;;17.90;1.00;;;;;;5030787;28;19926;-71
2023/08/22 03:37:09;;;;;;;;;;;17.90;1.00;;;;;;5030132;28;19926;-71
2023/08/22 03:39:35;;;;;;;;;;;17.90;1.00;;;;;;5030652;28;19929;-71
2023/08/22 03:42:01;;;;;;;;;;;17.90;1.00;;;;;;5029931;28;20169;-71
2023/08/22 03:44:26;;;;;;;;;;;17.90;1.00;;;;;;5031525;28;19929;-71
2023/08/22 03:46:52;;;;;;;;;;;17.90;1.00;;;;;;5030479;28;20016;-71
2023/08/22 03:49:17;;;;;;;;;;;17.80;1.00;;;;;;5032181;28;19925;-71
2023/08/22 03:51:43;;;;;;;;;;;17.80;1.00;;;;;;5029166;28;19925;-71
2023/08/22 03:54:08;;;;;;;;;;;17.70;1.00;;;;;;5032399;28;19925;-71
2023/08/22 03:56:34;;;;;;;;;;;17.70;1.00;;;;;;5030260;28;19925;-71
2023/08/22 03:58:59;;;;;;;;;;;17.70;1.00;;;;;;5012480;28;19929;-71
2023/08/22 04:01:25;;;;;;;;;;;17.70;1.00;;;;;;5029809;28;19933;-71
2023/08/22 04:03:51;;;;;;;;;;;17.60;1.00;;;;;;5030301;28;19925;-71
2023/08/22 04:06:16;;;;;;;;;;;17.60;1.00;;;;;;5030937;28;19926;-71
2023/08/22 04:08:42;;;;;;;;;;;17.50;1.00;;;;;;5032805;28;19932;-71
2023/08/22 04:11:07;;;;;;;;;;;17.50;1.00;;;;;;5014254;28;19929;-71
2023/08/22 04:13:33;;;;;;;;;;;17.40;1.00;;;;;;5033637;28;19925;-71
2023/08/22 04:15:58;;;;;;;;;;;17.40;1.00;;;;;;5031853;28;20007;-71
2023/08/22 04:18:24;;;;;;;;;;;17.40;1.00;;;;;;5033479;28;20272;-71
2023/08/22 04:20:49;;;;;;;;;;;17.40;1.00;;;;;;5032247;28;19925;-71
2023/08/22 04:23:15;;;;;;;;;;;17.30;1.00;;;;;;5036096;28;19925;-71
2023/08/22 04:25:40;;;;;;;;;;;17.30;1.00;;;;;;5047028;28;19924;-71
2023/08/22 04:28:06;;;;;;;;;;;17.30;1.00;;;;;;5044543;28;19932;-71
2023/08/22 04:30:32;;;;;;;;;;;17.30;1.00;;;;;;5046268;28;20303;-71
2023/08/22 04:32:57;;;;;;;;;;;17.20;1.00;;;;;;5044365;28;19932;-71
2023/08/22 04:35:23;;;;;;;;;;;17.20;1.00;;;;;;5046739;28;20018;-71
2023/08/22 04:37:50;;;;;;;;;;;17.20;1.00;;;;;;5033686;28;20809;-71
2023/08/22 04:40:15;;;;;;;;;;;17.20;1.00;;;;;;5049950;28;19987;-71
2023/08/22 04:42:41;;;;;;;;;;;17.20;1.00;;;;;;5047830;28;19924;-71
2023/08/22 04:45:06;;;;;;;;;;;17.10;1.00;;;;;;5050178;28;19929;-71
2023/08/22 04:47:32;;;;;;;;;;;17.10;1.00;;;;;;5047959;28;19929;-71
2023/08/22 04:49:58;;;;;;;;;;;17.10;1.00;;;;;;5049794;28;19925;-71
2023/08/22 04:52:24;;;;;;;;;;;17.10;1.00;;;;;;5048438;28;19933;-71
2023/08/22 04:54:49;;;;;;;;;;;17.10;1.00;;;;;;5049002;28;19970;-71
2023/08/22 04:57:15;;;;;;;;;;;17.10;1.00;;;;;;5034175;28;19965;-72
2023/08/22 04:59:40;;;;;;;;;;;17.00;1.00;;;;;;5013894;28;19979;-72
2023/08/22 05:02:06;;;;;;;;;;;17.00;1.00;;;;;;5031337;28;19983;-72
2023/08/22 05:04:31;;;;;;;;;;;17.10;1.00;;;;;;5030692;28;20015;-71
2023/08/22 05:06:57;;;;;;;;;;;17.00;1.00;;;;;;5031489;28;19940;-71
2023/08/22 05:09:26;;;;;;;;;;;17.00;1.00;;;;;;5031169;28;19929;-72
2023/08/22 05:11:51;;;;;;;;;;;17.10;1.00;;;;;;5030909;28;19932;-71
2023/08/22 05:14:17;;;;;;;;;;;17.10;1.00;;;;;;5030069;28;19937;-71
2023/08/22 05:16:43;;;;;;;;;;;17.10;1.00;;;;;;5014019;28;19925;-71
2023/08/22 05:19:09;;;;;;;;;;;17.20;1.00;;;;;;5031115;28;19932;-71
2023/08/22 05:21:34;;;;;;;;;;;17.20;1.00;;;;;;5031867;28;20306;-71
2023/08/22 05:24:00;;;;;;;;;;;17.20;1.00;;;;;;5031486;28;20377;-71
2023/08/22 05:26:25;;;;;;;;;;;17.20;1.00;;;;;;5031901;28;19935;-70
2023/08/22 05:28:51;;;;;;;;;;;17.20;1.00;;;;;;5029864;28;19980;-70
2023/08/22 05:31:20;;;;;;;;;;;17.30;1.00;;;;;;5031679;28;20313;-71
2023/08/22 05:33:46;;;;;;;;;;;17.30;1.00;;;;;;5029838;28;19925;-71
2023/08/22 05:36:11;;;;;;;;;;;17.30;1.00;;;;;;5030802;28;20022;-71
2023/08/22 05:38:37;;;;;;;;;;;17.40;1.00;;;;;;5022407;28;19925;-71
2023/08/22 05:41:02;;;;;;;;;;;17.50;1.00;;;;;;5030253;28;20310;-71
2023/08/22 05:43:28;;;;;;;;;;;17.50;1.00;;;;;;5029903;28;19933;-71
2023/08/22 05:45:53;;;;;;;;;;;17.60;1.00;;;;;;5030303;28;20047;-71
2023/08/22 05:48:19;;;;;;;;;;;17.60;1.00;;;;;;5028878;28;19925;-71
2023/08/22 05:50:44;;;;;;;;;;;17.60;1.00;;;;;;5032256;28;19971;-71
2023/08/22 05:53:10;;;;;;;;;;;17.70;1.00;;;;;;5030667;28;19952;-71
2023/08/22 05:55:35;;;;;;;;;;;17.80;1.00;;;;;;5031172;28;19925;-72
2023/08/22 05:58:01;;;;;;;;;;;17.80;1.00;;;;;;5032661;28;20415;-71
2023/08/22 06:00:26;;;;;;;;;;;17.90;1.00;;;;;;5037815;28;19924;-71
2023/08/22 06:02:52;;;;;;;;;;;17.90;1.00;;;;;;5035890;28;20358;-71
2023/08/22 06:05:17;;;;;;;;;;;18.00;1.00;;;;;;5033252;28;19933;-71
2023/08/22 06:07:43;;;;;;;;;;;18.00;1.00;;;;;;5034914;28;19933;-71
2023/08/22 06:10:08;;;;;;;;;;;18.10;1.00;;;;;;5036897;28;19932;-71
2023/08/22 06:12:34;;;;;;;;;;;18.10;1.00;;;;;;5036988;28;19986;-71
2023/08/22 06:14:59;;;;;;;;;;;18.10;1.00;;;;;;5037592;28;20323;-71
2023/08/22 06:17:25;;;;;;;;;;;18.10;1.00;;;;;;5037044;28;19936;-71
2023/08/22 06:19:52;;;;;;;;;;;18.20;1.00;;;;;;5036883;28;20441;-71
2023/08/22 06:22:17;;;;;;;;;;;18.20;1.00;;;;;;5037398;28;19976;-71
2023/08/22 06:24:43;;;;;;;;;;;18.30;1.00;;;;;;5037203;28;20319;-71
2023/08/22 06:27:08;;;;;;;;;;;18.30;1.00;;;;;;5037524;28;20311;-71
2023/08/22 06:29:34;;;;;;;;;;;18.40;1.00;;;;;;5035981;28;19926;-71
2023/08/22 06:32:02;;;;;;;;;;;18.40;1.00;;;;;;5038421;28;20578;-71
2023/08/22 06:34:29;;;;;;;;;;;18.50;1.00;;;;;;5038047;28;19928;-71
2023/08/22 06:36:55;;;;;;;;;;;18.50;1.00;;;;;;5037771;28;20447;-71
2023/08/22 06:39:20;;;;;;;;;;;18.50;1.00;;;;;;5038329;28;20034;-71
2023/08/22 06:41:46;;;;;;;;;;;18.50;1.00;;;;;;5038579;28;19974;-71
2023/08/22 06:44:11;;;;;;;;;;;18.50;1.00;;;;;;5038655;28;20616;-71
2023/08/22 06:46:37;;;;;;;;;;;18.50;1.00;;;;;;5039409;28;19925;-71
2023/08/22 06:49:03;;;;;;;;;;;18.60;1.00;;;;;;5021085;28;20390;-71
2023/08/22 06:51:28;;;;;;;;;;;18.60;1.00;;;;;;5040760;28;20354;-71
2023/08/22 06:53:54;;;;;;;;;;;18.70;1.00;;;;;;5039154;28;19939;-71
2023/08/22 06:56:19;;;;;;;;;;;18.70;1.00;;;;;;5034334;28;20395;-71
2023/08/22 06:58:45;;;;;;;;;;;18.80;1.00;;;;;;5030902;28;19925;-71
2023/08/22 07:01:10;;;;;;;;;;;18.90;1.00;;;;;;5030494;28;19925;-71
2023/08/22 07:03:36;;;;;;;;;;;19.00;1.00;;;;;;5031105;28;20284;-71
2023/08/22 07:06:02;;;;;;;;;;;19.10;1.00;;;;;;5029922;28;19925;-71
2023/08/22 07:08:27;;;;;;;;;;;19.20;1.00;;;;;;5032012;28;20303;-71
2023/08/22 07:11:03;;;;;;;;;;;19.20;1.00;;;;;;5030685;28;19929;-71
2023/08/22 07:13:29;;;;;;;;;;;19.30;1.00;;;;;;5032911;28;19970;-71
2023/08/22 07:15:54;;;;;;;;;;;19.40;1.00;;;;;;5031039;28;19929;-71
2023/08/22 07:18:20;;;;;;;;;;;19.40;1.00;;;;;;5032389;28;19924;-71
2023/08/22 07:20:46;;;;;;;;;;;19.40;1.00;;;;;;5031619;28;20008;-71
2023/08/22 07:23:12;;;;;;;;;;;19.40;1.00;;;;;;5033715;28;19968;-71
2023/08/22 07:25:37;;;;;;;;;;;19.40;1.00;;;;;;5032378;28;19953;-71
2023/08/22 07:28:03;;;;;;;;;;;19.50;1.00;;;;;;5033996;28;19928;-71
2023/08/22 07:30:29;;;;;;;;;;;19.40;1.00;;;;;;5031907;28;20003;-71
2023/08/22 07:32:54;;;;;;;;;;;19.50;1.00;;;;;;5034462;28;19929;-71
2023/08/22 07:35:20;;;;;;;;;;;19.60;1.00;;;;;;5032162;28;19977;-71
2023/08/22 07:37:45;;;;;;;;;;;19.50;1.00;;;;;;5034404;28;19940;-71
2023/08/22 07:40:11;;;;;;;;;;;19.60;1.00;;;;;;5014716;28;19975;-71
2023/08/22 07:42:36;;;;;;;;;;;19.60;1.00;;;;;;5040465;28;19933;-71
2023/08/22 07:45:03;;;;;;;;;;;19.60;1.00;;;;;;5036938;28;19925;-71
2023/08/22 07:47:29;;;;;;;;;;;19.70;1.00;;;;;;5040901;28;20011;-71
2023/08/22 07:49:55;;;;;;;;;;;19.90;1.00;;;;;;5034148;28;20020;-71
2023/08/22 07:52:20;;;;;;;;;;;20.00;1.00;;;;;;5040076;28;19994;-71
2023/08/22 07:54:46;;;;;;;;;;;20.10;1.00;;;;;;5034174;28;19925;-71
2023/08/22 07:57:11;;;;;;;;;;;20.30;1.00;;;;;;5034287;28;19986;-71
2023/08/22 07:59:38;;;;;;;;;;;20.40;1.00;;;;;;5033125;28;20386;-71
2023/08/22 08:02:04;;;;;;;;;;;20.40;1.00;;;;;;5033147;28;19933;-71
2023/08/22 08:04:33;;;;;;;;;;;20.50;1.00;;;;;;5033355;28;20506;-71
2023/08/22 08:06:58;;;;;;;;;;;20.50;1.00;;;;;;5033653;28;19925;-71
2023/08/22 08:09:24;;;;;;;;;;;20.50;1.00;;;;;;5032862;28;19935;-71
2023/08/22 08:11:49;;;;;;;;;;;20.40;99.90;;;;;;5034453;28;20016;-71
2023/08/22 08:14:15;;;;;;;;;;;20.40;99.90;;;;;;5034087;28;20329;-71
2023/08/22 08:16:40;;;;;;;;;;;20.40;99.90;;;;;;5034166;28;19929;-71
2023/08/22 08:19:06;;;;;;;;;;;20.40;99.90;;;;;;5033372;28;20399;-71
2023/08/22 08:21:31;;;;;;;;;;;20.50;99.90;;;;;;5033588;28;19982;-71
2023/08/22 08:23:57;;;;;;;;;;;20.60;99.90;;;;;;5032992;28;20434;-71
2023/08/22 08:26:23;;;;;;;;;;;20.80;1.00;;;;;;5034733;28;20302;-71
2023/08/22 08:28:49;;;;;;;;;;;20.80;99.90;;;;;;5033526;28;20024;-71
2023/08/22 08:31:15;;;;;;;;;;;20.90;99.90;;;;;;5031966;28;19925;-71
2023/08/22 08:33:40;;;;;;;;;;;21.00;99.90;;;;;;5034101;28;19932;-71
2023/08/22 08:36:06;;;;;;;;;;;21.10;99.90;;;;;;5035146;28;19935;-71
2023/08/22 08:38:31;;;;;;;;;;;21.30;99.90;;;;;;5033086;28;19925;-71
2023/08/22 08:40:59;;;;;;;;;;;21.40;99.90;;;;;;5034566;28;19929;-71
2023/08/22 08:43:25;;;;;;;;;;;21.50;99.90;;;;;;5033364;28;19929;-71
2023/08/22 08:45:51;;;;;;;;;;;21.50;99.90;;;;;;5035349;28;19931;-71
2023/08/22 08:48:20;;;;;;;;;;;21.50;56.50;;;;;;5034440;28;19925;-71
2023/08/22 08:50:46;;;;;;;;;;;21.50;1.00;;;;;;5036485;28;20390;-71
2023/08/22 08:53:12;;;;;;;;;;;21.50;1.00;;;;;;5034520;28;19996;-71
2023/08/22 08:55:40;;;;;;;;;;;21.50;1.00;;;;;;5034595;28;20333;-71
2023/08/22 08:58:09;;;;;;;;;;;21.60;99.90;;;;;;5032010;28;19933;-71
2023/08/22 09:00:36;;;;;;;;;;;21.60;99.90;;;;;;5033256;28;19933;-71
2023/08/22 09:03:02;;;;;;;;;;;21.70;99.90;;;;;;5032758;28;20386;-71
2023/08/22 09:05:30;;;;;;;;;;;21.90;99.90;;;;;;5034280;28;19929;-72
2023/08/22 09:07:56;;;;;;;;;;;22.00;99.90;;;;;;4998573;28;19936;-71
2023/08/22 09:10:33;;;;;;;;;;;22.20;99.90;;;;;;5034262;28;19925;-71
2023/08/22 09:13:01;;;;;;;;;;;22.30;9.90;;;;;;5033165;28;19932;-72
2023/08/22 09:15:27;;;;;;;;;;;22.40;1.00;;;;;;5033968;28;19929;-71
2023/08/22 09:17:55;;;;;;;;;;;22.40;99.90;;;;;;5033245;28;20438;-72
2023/08/22 09:20:21;;;;;;;;;;;22.40;99.90;;;;;;5031528;28;19925;-71
2023/08/22 09:22:46;;;;;;;;;;;22.50;95.70;;;;;;5032176;28;19932;-70
2023/08/22 09:25:12;;;;;;;;;;;22.50;99.90;;;;;;5033117;28;20350;-70
2023/08/22 09:27:37;;;;;;;;;;;22.70;1.00;;;;;;5033169;28;20291;-71
2023/08/22 09:30:04;;;;;;;;;;;23.10;99.90;;;;;;5032534;28;20291;-71
2023/08/22 09:32:29;;;;;;;;;;;23.60;99.90;;;;;;5033152;28;19932;-71
2023/08/22 09:34:56;;;;;;;;;;;23.90;99.90;;;;;;5032809;28;19929;-71
2023/08/22 09:37:34;;;;;;;;;;;24.40;99.90;;;;;;5032735;28;19948;-71
2023/08/22 09:40:01;;;;;;;;;;;24.90;17.90;;;;;;5032376;28;19948;-71
2023/08/22 09:42:29;;;;;;;;;;;25.20;99.90;;;;;;5033307;28;19925;-71
2023/08/22 09:44:55;;;;;;;;;;;25.70;99.90;;;;;;5032305;28;19929;-71
2023/08/22 09:47:23;;;;;;;;;;;26.20;1.00;;;;;;5033289;28;19999;-71
2023/08/22 09:49:50;;;;;;;;;;;26.70;1.00;;;;;;5031935;28;19932;-71
2023/08/22 09:52:15;;;;;;;;;;;27.20;99.90;;;;;;5032808;28;19932;-71
2023/08/22 09:54:42;;;;;;;;;;;27.60;99.90;;;;;;5031834;28;19925;-72
2023/08/22 09:57:08;;;;;;;;;;;28.00;99.90;;;;;;5032156;28;19925;-72
2023/08/22 09:59:34;;;;;;;;;;;28.40;99.90;;;;;;5031416;28;20367;-71
2023/08/22 10:02:02;;;;;;;;;;;28.70;99.90;;;;;;5032201;28;19925;-71
2023/08/22 10:04:28;;;;;;;;;;;28.80;99.90;;;;;;5031431;28;19929;-71
2023/08/22 10:06:54;;;;;;;;;;;28.90;99.90;;;;;;5033273;28;20362;-71
2023/08/22 10:09:19;;;;;;;;;;;28.90;99.90;;;;;;5032131;28;19979;-71
2023/08/22 10:11:48;;;;;;;;;;;29.10;99.90;;;;;;5033161;28;19980;-72
2023/08/22 10:14:18;;;;;;;;;;;29.40;99.90;;;;;;5032076;28;19925;-71
2023/08/22 10:16:44;;;;;;;;;;;29.60;99.90;;;;;;5033472;28;20003;-71
2023/08/22 10:19:11;;;;;;;;;;;29.80;99.90;;;;;;5032299;28;20387;-71
2023/08/22 10:21:43;;;;;;;;;;;29.70;99.90;;;;;;5034493;28;20442;-71
2023/08/22 10:24:18;;;;;;;;;;;29.80;99.90;;;;;;5032276;28;20049;-72
2023/08/22 10:27:02;;;;;;;;;;;30.00;99.90;;;;;;5034306;28;19925;-71
2023/08/22 10:29:40;;;;;;;;;;;30.40;99.90;;;;;;5034254;28;20063;-71
2023/08/22 10:32:05;;;;;;;;;;;30.30;99.90;;;;;;5031802;28;19929;-71
2023/08/22 10:34:34;;;;;;;;;;;30.50;99.90;;;;;;5034250;28;19932;-71
2023/08/22 10:37:00;;;;;;;;;;;30.70;99.90;;;;;;5032072;28;19925;-71
2023/08/22 10:39:39;;;;;;;;;;;30.80;99.90;;;;;;5016209;28;20018;-71
2023/08/22 10:42:14;;;;;;;;;;;31.00;99.90;;;;;;5032330;28;20015;-72
2023/08/22 10:44:40;;;;;;;;;;;31.20;99.90;;;;;;5031692;28;19934;-72
2023/08/22 10:47:17;;;;;;;2.42;1.00;;;31.20;99.60;;;;;;5031623;28;20292;-71
2023/08/22 10:49:47;;;;;;;2.25;1.00;;;31.30;98.60;;;;;;5029848;28;20419;-72
2023/08/22 10:52:13;;;;;;;2.97;0.90;;;31.50;99.00;;;;;;5030026;28;20411;-70
2023/08/22 10:54:57;;;;;;;3.85;0.98;;;31.80;98.70;;;;;;5012335;28;20430;-70
2023/08/22 10:57:23;;;;;;;3.33;1.15;;;31.90;97.20;;;;;;5029659;28;20422;-70
2023/08/22 10:59:59;;;;;;;6.25;1.33;;;32.10;97.20;;;;;;5029346;28;20431;-71
2023/08/22 11:02:33;;;;;;;3.47;1.13;;;32.30;95.70;;;;;;5030721;28;20859;-70
2023/08/22 11:05:01;;;;;;;3.20;1.30;;;32.30;94.80;;;;;;5011716;28;20490;-71
2023/08/22 11:07:28;;;;;;;4.47;1.23;;;32.20;93.30;;;;;;5029269;28;20425;-71
2023/08/22 11:09:54;;;;;;;;;;;32.20;93.50;;;;;;5032306;28;20057;-71
2023/08/22 11:12:21;;;;;;;3.30;1.20;;;32.10;90.70;;;;;;5032261;28;19975;-70
2023/08/22 11:14:48;;;;;;;3.97;1.00;;;32.10;91.10;;;;;;5030251;28;20418;-71
2023/08/22 11:17:18;;;;;;;4.40;1.30;;;32.30;91.20;;;;;;5036404;28;20924;-71
2023/08/22 11:19:44;;;;;;;2.70;1.00;;;32.50;91.00;;;;;;5037426;28;20438;-71
2023/08/22 11:22:10;;;;;;;3.60;1.50;;;32.70;90.80;;;;;;5036144;28;20408;-71
2023/08/22 11:24:36;;;;;;;;;;;32.70;87.70;;;;;;5039307;28;20079;-71
2023/08/22 11:27:03;;;;;;;3.72;1.52;;;32.60;85.70;;;;;;5037412;28;19925;-71
2023/08/22 11:29:38;;;;;;;3.92;1.60;;;32.20;93.00;;;;;;5034400;28;20406;-71
2023/08/22 11:32:04;;;;;;;5.45;1.70;;;31.70;81.50;;;;;;5035494;28;20406;-71
2023/08/22 11:34:29;;;;;;;4.57;1.70;;;31.30;80.20;;;;;;5037754;28;20405;-71
2023/08/22 11:36:55;;;;;;;3.40;1.40;;;31.30;80.60;;;;;;5025572;28;20403;-72
2023/08/22 11:39:21;;;;;;;3.20;1.30;;;31.50;80.60;;;;;;5038969;28;20436;-72
2023/08/22 11:41:46;;;;;;;;;;;31.70;81.50;;;;;;5036895;28;20475;-72
2023/08/22 11:44:12;;;;;;;;;;;32.10;82.60;;;;;;5040027;28;20560;-72
2023/08/22 11:46:38;;;;;;;;;;;32.40;82.40;;;;;;5036010;28;19921;-72
2023/08/22 11:49:06;;;;;;;;;;;32.20;79.10;;;;;;5039694;28;19979;-71
2023/08/22 11:51:32;;;;;;;;;;;31.90;76.60;;;;;;5037417;28;19921;-72
2023/08/22 11:53:57;;;;;;;4.93;1.40;;;31.80;77.20;;;;;;5040715;28;20290;-72
2023/08/22 11:56:23;;;;;;;3.53;1.30;;;31.90;77.80;;;;;;5033836;28;20453;-72
2023/08/22 11:58:54;;;;;;;3.25;1.20;;;32.00;77.10;;;;;;5013900;28;21384;-72
2023/08/22 12:01:20;;;;;;;;;;;32.10;76.90;;;;;;5033889;28;20034;-72
2023/08/22 12:03:47;;;;;;;3.47;1.00;;;32.10;77.20;;;;;;5000054;28;19927;-72
2023/08/22 12:06:15;;;;;;;;;;;32.00;77.30;;;;;;5034325;28;20045;-72
2023/08/22 12:08:41;;;;;;;;;;;31.90;75.30;;;;;;5034765;28;20023;-71
2023/08/22 12:11:07;;;;;;;;;;;31.70;75.30;;;;;;5033885;28;20442;-71
2023/08/22 12:13:33;;;;;;;;;;;31.70;74.80;;;;;;5016544;28;20342;-72
2023/08/22 12:15:58;;;;;;;;;;;31.50;73.50;;;;;;5034234;28;19920;-72
2023/08/22 12:18:29;;;;;;;;;;;31.10;71.60;;;;;;5036964;28;19921;-72
2023/08/22 12:20:55;;;;;;;;;;;30.90;72.30;;;;;;5014686;28;20363;-72
2023/08/22 12:23:20;;;;;;;;;;;31.10;72.70;;;;;;5036742;28;20007;-72
2023/08/22 12:25:46;;;;;;;;;;;31.30;71.40;;;;;;5034421;28;19921;-72
2023/08/22 12:28:14;;;;;;;;;;;31.70;72.50;;;;;;5026055;28;20349;-72
2023/08/22 12:30:39;;;;;;;;;;;31.90;73.20;;;;;;5035128;28;20015;-72
2023/08/22 12:33:05;;;;;;;;;;;32.20;73.70;;;;;;5036095;28;20008;-71
2023/08/22 12:35:31;;;;;;;;;;;32.00;72.10;;;;;;5017775;28;19921;-73
2023/08/22 12:37:57;;;;;;;;;;;31.80;70.80;;;;;;5038812;28;19924;-70
2023/08/22 12:40:22;;;;;;;;;;;31.60;69.50;;;;;;5036027;28;20383;-72
2023/08/22 12:42:48;;;;;;;;;;;31.00;66.20;;;;;;5038267;28;19920;-71
2023/08/22 12:45:13;;;;;;;;;;;30.70;64.80;;;;;;5035222;28;19925;-71
2023/08/22 12:47:39;;;;;;;;;;;30.70;65.60;;;;;;5040236;28;20603;-72
2023/08/22 12:50:05;;;;;;;;;;;31.20;66.90;;;;;;5018455;28;19921;-71
2023/08/22 12:52:31;;;;;;;;;;;31.70;69.50;;;;;;5040270;28;20318;-71
2023/08/22 12:54:57;;;;;;;;;;;32.00;68.70;;;;;;5036374;28;20272;-71
2023/08/22 12:57:22;;;;;;;;;;;32.00;68.00;;;;;;5033846;28;20299;-71
2023/08/22 12:59:48;;;;;;;;;;;31.80;66.40;;;;;;5032241;28;20018;-71
2023/08/22 13:02:13;;;;;;;;;;;31.60;64.90;;;;;;5031762;28;19921;-71
2023/08/22 13:04:39;;;;;;;;;;;31.20;62.90;;;;;;5014072;28;20632;-71
2023/08/22 13:07:04;;;;;;;;;;;30.80;61.80;;;;;;5032607;28;19921;-71
2023/08/22 13:09:32;;;;;;;;;;;30.90;62.50;;;;;;5014783;28;19928;-71
2023/08/22 13:11:57;;;;;;;;;;;31.10;62.90;;;;;;5033264;28;19925;-71
2023/08/22 13:14:23;;;;;;;;;;;31.00;61.10;;;;;;5032661;28;19921;-71
2023/08/22 13:16:48;;;;;;;;;;;31.10;61.60;;;;;;5032964;28;19920;-71
2023/08/22 13:19:14;;;;;;;;;;;31.60;62.90;;;;;;5016039;28;19925;-71
2023/08/22 13:21:39;;;;;;;;;;;31.80;63.30;;;;;;5035098;28;20003;-71
2023/08/22 13:24:05;;;;;;;;;;;31.70;61.40;;;;;;5033247;28;20012;-71
2023/08/22 13:26:30;;;;;;;;;;;32.00;63.40;;;;;;5033989;28;19920;-71
2023/08/22 13:28:56;;;;;;;;;;;32.20;63.60;;;;;;5034382;28;20375;-71
2023/08/22 13:31:21;;;;;;;;;;;31.80;61.40;;;;;;5037057;28;19931;-71
2023/08/22 13:33:47;;;;;;;;;;;31.20;59.40;;;;;;5033789;28;19927;-71
2023/08/22 13:36:13;;;;;;;;;;;30.70;57.70;;;;;;5037477;28;19948;-71
2023/08/22 13:38:38;;;;;;;;;;;30.40;56.70;;;;;;5033296;28;19943;-71
2023/08/22 13:41:04;;;;;;;;;;;30.40;56.00;;;;;;5037529;28;19982;-71
2023/08/22 13:43:29;;;;;;;;;;;31.00;58.20;;;;;;5035170;28;19925;-71
2023/08/22 13:45:55;;;;;;;;;;;31.90;61.60;;;;;;5038654;28;20449;-71
2023/08/22 13:48:21;;;;;;;;;;;32.50;61.50;;;;;;5035065;28;19972;-71
2023/08/22 13:50:47;;;;;;;;;;;33.00;63.30;;;;;;5038768;28;20069;-71
2023/08/22 13:53:12;;;;;;;;;;;33.20;64.60;;;;;;5017733;28;19943;-71
2023/08/22 13:55:38;;;;;;;;;;;32.50;59.70;;;;;;5035187;28;19960;-71
2023/08/22 13:58:04;;;;;;;;;;;32.10;58.30;;;;;;5039415;28;19924;-71
2023/08/22 14:00:30;;;;;;;;;;;31.90;57.10;;;;;;5042832;28;19974;-71
2023/08/22 14:02:56;;;;;;;;;;;31.20;55.70;;;;;;5045240;28;20371;-70
2023/08/22 14:05:21;;;;;;;;;;;30.70;53.80;;;;;;5041981;28;19943;-70
2023/08/22 14:07:47;;;;;;;;;;;30.20;53.40;;;;;;5045113;28;19920;-70
2023/08/22 14:10:12;;;;;;;;;;;29.80;52.30;;;;;;5042268;28;20446;-70